<?xml version="1.0" encoding="UTF-8" standalone="no" ?>
<gpx xmlns="http://www.topografix.com/GPX/1/1" xmlns:xsi="http://www.w3.org/2001/XMLSchema-instance" xsi:schemaLocation="http://www.topografix.com/GPX/1/1 http://www.topografix.com/GPX/1/1/gpx.xsd" version="1.1" creator="VisuGPX - https://www.visugpx.com">
  <metadata>
    <name>83 - V - Lorgues </name>
    <desc><![CDATA[83 - V - Lorgues : Prison - Château Roubine - GR653A - prison 2022-11-02]]></desc>
  </metadata>
  <trk>
    <name><![CDATA[Lorgues prison Roubine prison 2022-11-02-01]]></name>
    <trkseg>
      <trkpt lat="43.50153" lon="6.41969">
        <ele>238.1</ele>
        <time>2022-11-02T12:25:28Z</time>
      </trkpt>
      <trkpt lat="43.50152" lon="6.41969">
        <ele>238</ele>
        <time>2022-11-02T12:25:28Z</time>
      </trkpt>
      <trkpt lat="43.50139" lon="6.41971">
        <ele>238</ele>
        <time>2022-11-02T12:25:40Z</time>
      </trkpt>
      <trkpt lat="43.50126" lon="6.41974">
        <ele>239</ele>
        <time>2022-11-02T12:25:52Z</time>
      </trkpt>
      <trkpt lat="43.50114" lon="6.41975">
        <ele>240</ele>
        <time>2022-11-02T12:26:04Z</time>
      </trkpt>
      <trkpt lat="43.50101" lon="6.41978">
        <ele>241</ele>
        <time>2022-11-02T12:26:16Z</time>
      </trkpt>
      <trkpt lat="43.50091" lon="6.41977">
        <ele>242</ele>
        <time>2022-11-02T12:26:24Z</time>
      </trkpt>
      <trkpt lat="43.50082" lon="6.41974">
        <ele>242</ele>
        <time>2022-11-02T12:26:28Z</time>
      </trkpt>
      <trkpt lat="43.50071" lon="6.41978">
        <ele>243</ele>
        <time>2022-11-02T12:26:40Z</time>
      </trkpt>
      <trkpt lat="43.50061" lon="6.4198">
        <ele>244</ele>
        <time>2022-11-02T12:26:46Z</time>
      </trkpt>
      <trkpt lat="43.5005" lon="6.41987">
        <ele>245</ele>
        <time>2022-11-02T12:26:56Z</time>
      </trkpt>
      <trkpt lat="43.50041" lon="6.41995">
        <ele>245</ele>
        <time>2022-11-02T12:27:04Z</time>
      </trkpt>
      <trkpt lat="43.50037" lon="6.42008">
        <ele>246</ele>
        <time>2022-11-02T12:27:13Z</time>
      </trkpt>
      <trkpt lat="43.50026" lon="6.42022">
        <ele>246</ele>
        <time>2022-11-02T12:27:23Z</time>
      </trkpt>
      <trkpt lat="43.50014" lon="6.42043">
        <ele>246</ele>
        <time>2022-11-02T12:27:37Z</time>
      </trkpt>
      <trkpt lat="43.5001" lon="6.42056">
        <ele>246</ele>
        <time>2022-11-02T12:27:46Z</time>
      </trkpt>
      <trkpt lat="43.50004" lon="6.42069">
        <ele>247</ele>
        <time>2022-11-02T12:27:58Z</time>
      </trkpt>
      <trkpt lat="43.49997" lon="6.4208">
        <ele>246</ele>
        <time>2022-11-02T12:28:09Z</time>
      </trkpt>
      <trkpt lat="43.49992" lon="6.42093">
        <ele>246.3</ele>
        <time>2022-11-02T12:28:20Z</time>
      </trkpt>
      <trkpt lat="43.49985" lon="6.42101">
        <ele>246</ele>
        <time>2022-11-02T12:28:26Z</time>
      </trkpt>
      <trkpt lat="43.4998" lon="6.42112">
        <ele>245.7</ele>
        <time>2022-11-02T12:28:33Z</time>
      </trkpt>
      <trkpt lat="43.49977" lon="6.42124">
        <ele>245</ele>
        <time>2022-11-02T12:28:40Z</time>
      </trkpt>
      <trkpt lat="43.49976" lon="6.42139">
        <ele>244.3</ele>
        <time>2022-11-02T12:28:51Z</time>
      </trkpt>
      <trkpt lat="43.49971" lon="6.4215">
        <ele>243</ele>
        <time>2022-11-02T12:28:59Z</time>
      </trkpt>
      <trkpt lat="43.49965" lon="6.42161">
        <ele>243.1</ele>
        <time>2022-11-02T12:29:06Z</time>
      </trkpt>
      <trkpt lat="43.49958" lon="6.4217">
        <ele>243</ele>
        <time>2022-11-02T12:29:13Z</time>
      </trkpt>
      <trkpt lat="43.49952" lon="6.42182">
        <ele>243</ele>
        <time>2022-11-02T12:29:22Z</time>
      </trkpt>
      <trkpt lat="43.49948" lon="6.42193">
        <ele>243.3</ele>
        <time>2022-11-02T12:29:29Z</time>
      </trkpt>
      <trkpt lat="43.49942" lon="6.42204">
        <ele>243.1</ele>
        <time>2022-11-02T12:29:38Z</time>
      </trkpt>
      <trkpt lat="43.49936" lon="6.42215">
        <ele>243.3</ele>
        <time>2022-11-02T12:29:45Z</time>
      </trkpt>
      <trkpt lat="43.49929" lon="6.42227">
        <ele>243.5</ele>
        <time>2022-11-02T12:29:55Z</time>
      </trkpt>
      <trkpt lat="43.49923" lon="6.42236">
        <ele>243.9</ele>
        <time>2022-11-02T12:30:03Z</time>
      </trkpt>
      <trkpt lat="43.49915" lon="6.42241">
        <ele>243.9</ele>
        <time>2022-11-02T12:30:20Z</time>
      </trkpt>
      <trkpt lat="43.49905" lon="6.42245">
        <ele>244.4</ele>
        <time>2022-11-02T12:30:59Z</time>
      </trkpt>
      <trkpt lat="43.49896" lon="6.42245">
        <ele>244</ele>
        <time>2022-11-02T12:31:08Z</time>
      </trkpt>
      <trkpt lat="43.49887" lon="6.42239">
        <ele>244</ele>
        <time>2022-11-02T12:31:16Z</time>
      </trkpt>
      <trkpt lat="43.49878" lon="6.42243">
        <ele>243.7</ele>
        <time>2022-11-02T12:31:23Z</time>
      </trkpt>
      <trkpt lat="43.49868" lon="6.42245">
        <ele>243.5</ele>
        <time>2022-11-02T12:31:31Z</time>
      </trkpt>
      <trkpt lat="43.49859" lon="6.42246">
        <ele>243.9</ele>
        <time>2022-11-02T12:31:37Z</time>
      </trkpt>
      <trkpt lat="43.4985" lon="6.42244">
        <ele>243.5</ele>
        <time>2022-11-02T12:31:45Z</time>
      </trkpt>
      <trkpt lat="43.49841" lon="6.42244">
        <ele>243.3</ele>
        <time>2022-11-02T12:31:53Z</time>
      </trkpt>
      <trkpt lat="43.49832" lon="6.42248">
        <ele>243.2</ele>
        <time>2022-11-02T12:32:01Z</time>
      </trkpt>
      <trkpt lat="43.49824" lon="6.42254">
        <ele>243.1</ele>
        <time>2022-11-02T12:32:08Z</time>
      </trkpt>
      <trkpt lat="43.49815" lon="6.4226">
        <ele>242.7</ele>
        <time>2022-11-02T12:32:15Z</time>
      </trkpt>
      <trkpt lat="43.49806" lon="6.42264">
        <ele>242.5</ele>
        <time>2022-11-02T12:32:23Z</time>
      </trkpt>
      <trkpt lat="43.49798" lon="6.4227">
        <ele>242.7</ele>
        <time>2022-11-02T12:32:30Z</time>
      </trkpt>
      <trkpt lat="43.49791" lon="6.42278">
        <ele>242.9</ele>
        <time>2022-11-02T12:32:37Z</time>
      </trkpt>
      <trkpt lat="43.49783" lon="6.42284">
        <ele>243.1</ele>
        <time>2022-11-02T12:32:43Z</time>
      </trkpt>
      <trkpt lat="43.49776" lon="6.42292">
        <ele>243.5</ele>
        <time>2022-11-02T12:32:51Z</time>
      </trkpt>
      <trkpt lat="43.49767" lon="6.42296">
        <ele>243.9</ele>
        <time>2022-11-02T12:32:59Z</time>
      </trkpt>
      <trkpt lat="43.49758" lon="6.42302">
        <ele>244.4</ele>
        <time>2022-11-02T12:33:07Z</time>
      </trkpt>
      <trkpt lat="43.49751" lon="6.4231">
        <ele>245.4</ele>
        <time>2022-11-02T12:33:15Z</time>
      </trkpt>
      <trkpt lat="43.49742" lon="6.42317">
        <ele>245.8</ele>
        <time>2022-11-02T12:33:24Z</time>
      </trkpt>
      <trkpt lat="43.49733" lon="6.42323">
        <ele>246.2</ele>
        <time>2022-11-02T12:33:31Z</time>
      </trkpt>
      <trkpt lat="43.49723" lon="6.42326">
        <ele>246.2</ele>
        <time>2022-11-02T12:33:39Z</time>
      </trkpt>
      <trkpt lat="43.49714" lon="6.42332">
        <ele>245.8</ele>
        <time>2022-11-02T12:33:47Z</time>
      </trkpt>
      <trkpt lat="43.49705" lon="6.42335">
        <ele>245.4</ele>
        <time>2022-11-02T12:33:56Z</time>
      </trkpt>
      <trkpt lat="43.49696" lon="6.42343">
        <ele>245.1</ele>
        <time>2022-11-02T12:34:02Z</time>
      </trkpt>
      <trkpt lat="43.49688" lon="6.42349">
        <ele>244.9</ele>
        <time>2022-11-02T12:34:10Z</time>
      </trkpt>
      <trkpt lat="43.4968" lon="6.42358">
        <ele>244.2</ele>
        <time>2022-11-02T12:34:18Z</time>
      </trkpt>
      <trkpt lat="43.49671" lon="6.4236">
        <ele>243.6</ele>
        <time>2022-11-02T12:34:25Z</time>
      </trkpt>
      <trkpt lat="43.49663" lon="6.42367">
        <ele>242.7</ele>
        <time>2022-11-02T12:34:33Z</time>
      </trkpt>
      <trkpt lat="43.49655" lon="6.42375">
        <ele>242.4</ele>
        <time>2022-11-02T12:34:41Z</time>
      </trkpt>
      <trkpt lat="43.4965" lon="6.42386">
        <ele>242.4</ele>
        <time>2022-11-02T12:34:49Z</time>
      </trkpt>
      <trkpt lat="43.49644" lon="6.42396">
        <ele>242.4</ele>
        <time>2022-11-02T12:34:58Z</time>
      </trkpt>
      <trkpt lat="43.49639" lon="6.42407">
        <ele>241.8</ele>
        <time>2022-11-02T12:35:05Z</time>
      </trkpt>
      <trkpt lat="43.49632" lon="6.42418">
        <ele>241.2</ele>
        <time>2022-11-02T12:35:13Z</time>
      </trkpt>
      <trkpt lat="43.49627" lon="6.42431">
        <ele>240.9</ele>
        <time>2022-11-02T12:35:21Z</time>
      </trkpt>
      <trkpt lat="43.49619" lon="6.4244">
        <ele>240.3</ele>
        <time>2022-11-02T12:35:28Z</time>
      </trkpt>
      <trkpt lat="43.49612" lon="6.42449">
        <ele>240.1</ele>
        <time>2022-11-02T12:35:35Z</time>
      </trkpt>
      <trkpt lat="43.49608" lon="6.42462">
        <ele>240</ele>
        <time>2022-11-02T12:35:41Z</time>
      </trkpt>
      <trkpt lat="43.49605" lon="6.42474">
        <ele>239.8</ele>
        <time>2022-11-02T12:35:46Z</time>
      </trkpt>
      <trkpt lat="43.49601" lon="6.42486">
        <ele>239.6</ele>
        <time>2022-11-02T12:35:57Z</time>
      </trkpt>
      <trkpt lat="43.49593" lon="6.42495">
        <ele>239.6</ele>
        <time>2022-11-02T12:36:06Z</time>
      </trkpt>
      <trkpt lat="43.49588" lon="6.42506">
        <ele>239.4</ele>
        <time>2022-11-02T12:36:14Z</time>
      </trkpt>
      <trkpt lat="43.49582" lon="6.42517">
        <ele>239.6</ele>
        <time>2022-11-02T12:36:22Z</time>
      </trkpt>
      <trkpt lat="43.49577" lon="6.42528">
        <ele>240</ele>
        <time>2022-11-02T12:36:32Z</time>
      </trkpt>
      <trkpt lat="43.49569" lon="6.42536">
        <ele>240</ele>
        <time>2022-11-02T12:36:41Z</time>
      </trkpt>
      <trkpt lat="43.49564" lon="6.42546">
        <ele>239.9</ele>
        <time>2022-11-02T12:36:46Z</time>
      </trkpt>
      <trkpt lat="43.49558" lon="6.42558">
        <ele>239.9</ele>
        <time>2022-11-02T12:36:56Z</time>
      </trkpt>
      <trkpt lat="43.49554" lon="6.4257">
        <ele>239.7</ele>
        <time>2022-11-02T12:37:02Z</time>
      </trkpt>
      <trkpt lat="43.49551" lon="6.42582">
        <ele>239.1</ele>
        <time>2022-11-02T12:37:12Z</time>
      </trkpt>
      <trkpt lat="43.49545" lon="6.42594">
        <ele>238.5</ele>
        <time>2022-11-02T12:37:23Z</time>
      </trkpt>
      <trkpt lat="43.49539" lon="6.42604">
        <ele>238</ele>
        <time>2022-11-02T12:37:36Z</time>
      </trkpt>
      <trkpt lat="43.4953" lon="6.42605">
        <ele>237.1</ele>
        <time>2022-11-02T12:38:08Z</time>
      </trkpt>
      <trkpt lat="43.49524" lon="6.42595">
        <ele>237.3</ele>
        <time>2022-11-02T12:38:17Z</time>
      </trkpt>
      <trkpt lat="43.4952" lon="6.42583">
        <ele>238.2</ele>
        <time>2022-11-02T12:38:27Z</time>
      </trkpt>
      <trkpt lat="43.49513" lon="6.42574">
        <ele>238</ele>
        <time>2022-11-02T12:38:33Z</time>
      </trkpt>
      <trkpt lat="43.49507" lon="6.42563">
        <ele>237.8</ele>
        <time>2022-11-02T12:38:41Z</time>
      </trkpt>
      <trkpt lat="43.49501" lon="6.42552">
        <ele>237.5</ele>
        <time>2022-11-02T12:38:49Z</time>
      </trkpt>
      <trkpt lat="43.49493" lon="6.42545">
        <ele>236.7</ele>
        <time>2022-11-02T12:38:57Z</time>
      </trkpt>
      <trkpt lat="43.49486" lon="6.42535">
        <ele>236</ele>
        <time>2022-11-02T12:39:05Z</time>
      </trkpt>
      <trkpt lat="43.4948" lon="6.42526">
        <ele>235.5</ele>
        <time>2022-11-02T12:39:11Z</time>
      </trkpt>
      <trkpt lat="43.49475" lon="6.42516">
        <ele>234.9</ele>
        <time>2022-11-02T12:39:17Z</time>
      </trkpt>
      <trkpt lat="43.49469" lon="6.42504">
        <ele>234</ele>
        <time>2022-11-02T12:39:25Z</time>
      </trkpt>
      <trkpt lat="43.49465" lon="6.42494">
        <ele>232.4</ele>
        <time>2022-11-02T12:39:36Z</time>
      </trkpt>
      <trkpt lat="43.49459" lon="6.42483">
        <ele>231.1</ele>
        <time>2022-11-02T12:39:44Z</time>
      </trkpt>
      <trkpt lat="43.49455" lon="6.42471">
        <ele>229.5</ele>
        <time>2022-11-02T12:39:52Z</time>
      </trkpt>
      <trkpt lat="43.49451" lon="6.42459">
        <ele>227.7</ele>
        <time>2022-11-02T12:40:00Z</time>
      </trkpt>
      <trkpt lat="43.49447" lon="6.42445">
        <ele>224.9</ele>
        <time>2022-11-02T12:40:10Z</time>
      </trkpt>
      <trkpt lat="43.49441" lon="6.42433">
        <ele>222.8</ele>
        <time>2022-11-02T12:40:19Z</time>
      </trkpt>
      <trkpt lat="43.49436" lon="6.42421">
        <ele>220.9</ele>
        <time>2022-11-02T12:40:28Z</time>
      </trkpt>
      <trkpt lat="43.49431" lon="6.42409">
        <ele>219.1</ele>
        <time>2022-11-02T12:40:36Z</time>
      </trkpt>
      <trkpt lat="43.4943" lon="6.42396">
        <ele>217.2</ele>
        <time>2022-11-02T12:40:47Z</time>
      </trkpt>
      <trkpt lat="43.49433" lon="6.42384">
        <ele>216</ele>
        <time>2022-11-02T12:40:55Z</time>
      </trkpt>
      <trkpt lat="43.49438" lon="6.42372">
        <ele>215.4</ele>
        <time>2022-11-02T12:41:04Z</time>
      </trkpt>
      <trkpt lat="43.49441" lon="6.4236">
        <ele>214.3</ele>
        <time>2022-11-02T12:41:13Z</time>
      </trkpt>
      <trkpt lat="43.49446" lon="6.42349">
        <ele>213.4</ele>
        <time>2022-11-02T12:41:22Z</time>
      </trkpt>
      <trkpt lat="43.49449" lon="6.42336">
        <ele>212.2</ele>
        <time>2022-11-02T12:41:31Z</time>
      </trkpt>
      <trkpt lat="43.49454" lon="6.42324">
        <ele>211</ele>
        <time>2022-11-02T12:41:38Z</time>
      </trkpt>
      <trkpt lat="43.49457" lon="6.42312">
        <ele>210</ele>
        <time>2022-11-02T12:41:46Z</time>
      </trkpt>
      <trkpt lat="43.49463" lon="6.423">
        <ele>209.2</ele>
        <time>2022-11-02T12:41:54Z</time>
      </trkpt>
      <trkpt lat="43.49468" lon="6.4229">
        <ele>208.7</ele>
        <time>2022-11-02T12:42:01Z</time>
      </trkpt>
      <trkpt lat="43.49473" lon="6.42278">
        <ele>208.5</ele>
        <time>2022-11-02T12:42:08Z</time>
      </trkpt>
      <trkpt lat="43.49476" lon="6.42266">
        <ele>208.5</ele>
        <time>2022-11-02T12:42:15Z</time>
      </trkpt>
      <trkpt lat="43.4948" lon="6.42254">
        <ele>208.5</ele>
        <time>2022-11-02T12:42:22Z</time>
      </trkpt>
      <trkpt lat="43.49485" lon="6.42242">
        <ele>208.8</ele>
        <time>2022-11-02T12:42:30Z</time>
      </trkpt>
      <trkpt lat="43.49491" lon="6.42232">
        <ele>209.2</ele>
        <time>2022-11-02T12:42:36Z</time>
      </trkpt>
      <trkpt lat="43.49495" lon="6.42219">
        <ele>209.5</ele>
        <time>2022-11-02T12:42:44Z</time>
      </trkpt>
      <trkpt lat="43.495" lon="6.42208">
        <ele>209.6</ele>
        <time>2022-11-02T12:42:52Z</time>
      </trkpt>
      <trkpt lat="43.49505" lon="6.42196">
        <ele>210.1</ele>
        <time>2022-11-02T12:42:59Z</time>
      </trkpt>
      <trkpt lat="43.49507" lon="6.42183">
        <ele>210.9</ele>
        <time>2022-11-02T12:43:08Z</time>
      </trkpt>
      <trkpt lat="43.4951" lon="6.42171">
        <ele>211.7</ele>
        <time>2022-11-02T12:43:15Z</time>
      </trkpt>
      <trkpt lat="43.49513" lon="6.42158">
        <ele>212.6</ele>
        <time>2022-11-02T12:43:22Z</time>
      </trkpt>
      <trkpt lat="43.49518" lon="6.42147">
        <ele>213.4</ele>
        <time>2022-11-02T12:43:29Z</time>
      </trkpt>
      <trkpt lat="43.49523" lon="6.42135">
        <ele>214.4</ele>
        <time>2022-11-02T12:43:37Z</time>
      </trkpt>
      <trkpt lat="43.49527" lon="6.42123">
        <ele>215.2</ele>
        <time>2022-11-02T12:43:45Z</time>
      </trkpt>
      <trkpt lat="43.49531" lon="6.42111">
        <ele>216.5</ele>
        <time>2022-11-02T12:43:53Z</time>
      </trkpt>
      <trkpt lat="43.49536" lon="6.421">
        <ele>217.5</ele>
        <time>2022-11-02T12:44:01Z</time>
      </trkpt>
      <trkpt lat="43.4954" lon="6.42087">
        <ele>218.2</ele>
        <time>2022-11-02T12:44:09Z</time>
      </trkpt>
      <trkpt lat="43.49544" lon="6.42075">
        <ele>218.8</ele>
        <time>2022-11-02T12:44:16Z</time>
      </trkpt>
      <trkpt lat="43.49543" lon="6.42062">
        <ele>218.8</ele>
        <time>2022-11-02T12:44:25Z</time>
      </trkpt>
      <trkpt lat="43.49551" lon="6.42055">
        <ele>218.9</ele>
        <time>2022-11-02T12:44:35Z</time>
      </trkpt>
      <trkpt lat="43.49542" lon="6.42055">
        <ele>218.1</ele>
        <time>2022-11-02T12:44:48Z</time>
      </trkpt>
      <trkpt lat="43.49532" lon="6.42057">
        <ele>218.4</ele>
        <time>2022-11-02T12:44:56Z</time>
      </trkpt>
      <trkpt lat="43.49522" lon="6.42058">
        <ele>218.5</ele>
        <time>2022-11-02T12:45:04Z</time>
      </trkpt>
      <trkpt lat="43.49513" lon="6.42059">
        <ele>218.7</ele>
        <time>2022-11-02T12:45:11Z</time>
      </trkpt>
      <trkpt lat="43.49504" lon="6.4206">
        <ele>218.9</ele>
        <time>2022-11-02T12:45:19Z</time>
      </trkpt>
      <trkpt lat="43.49493" lon="6.4206">
        <ele>219</ele>
        <time>2022-11-02T12:45:27Z</time>
      </trkpt>
      <trkpt lat="43.49484" lon="6.42058">
        <ele>219.2</ele>
        <time>2022-11-02T12:45:35Z</time>
      </trkpt>
      <trkpt lat="43.49475" lon="6.42052">
        <ele>219.2</ele>
        <time>2022-11-02T12:45:42Z</time>
      </trkpt>
      <trkpt lat="43.49466" lon="6.42045">
        <ele>219.3</ele>
        <time>2022-11-02T12:45:50Z</time>
      </trkpt>
      <trkpt lat="43.49459" lon="6.42038">
        <ele>220</ele>
        <time>2022-11-02T12:45:57Z</time>
      </trkpt>
      <trkpt lat="43.49451" lon="6.4203">
        <ele>220.3</ele>
        <time>2022-11-02T12:46:05Z</time>
      </trkpt>
      <trkpt lat="43.49444" lon="6.42023">
        <ele>220.5</ele>
        <time>2022-11-02T12:46:12Z</time>
      </trkpt>
      <trkpt lat="43.49436" lon="6.42016">
        <ele>220.7</ele>
        <time>2022-11-02T12:46:19Z</time>
      </trkpt>
      <trkpt lat="43.49428" lon="6.42008">
        <ele>221.1</ele>
        <time>2022-11-02T12:46:27Z</time>
      </trkpt>
      <trkpt lat="43.4942" lon="6.42">
        <ele>220.7</ele>
        <time>2022-11-02T12:46:35Z</time>
      </trkpt>
      <trkpt lat="43.49412" lon="6.41992">
        <ele>220.7</ele>
        <time>2022-11-02T12:46:43Z</time>
      </trkpt>
      <trkpt lat="43.49404" lon="6.41984">
        <ele>220.3</ele>
        <time>2022-11-02T12:46:52Z</time>
      </trkpt>
      <trkpt lat="43.49396" lon="6.41975">
        <ele>220</ele>
        <time>2022-11-02T12:47:00Z</time>
      </trkpt>
      <trkpt lat="43.49389" lon="6.41967">
        <ele>219.4</ele>
        <time>2022-11-02T12:47:08Z</time>
      </trkpt>
      <trkpt lat="43.49381" lon="6.41958">
        <ele>218.7</ele>
        <time>2022-11-02T12:47:16Z</time>
      </trkpt>
      <trkpt lat="43.49372" lon="6.41952">
        <ele>217.9</ele>
        <time>2022-11-02T12:47:24Z</time>
      </trkpt>
      <trkpt lat="43.49363" lon="6.41947">
        <ele>217</ele>
        <time>2022-11-02T12:47:31Z</time>
      </trkpt>
      <trkpt lat="43.49353" lon="6.41945">
        <ele>216</ele>
        <time>2022-11-02T12:47:39Z</time>
      </trkpt>
      <trkpt lat="43.49344" lon="6.41942">
        <ele>215.2</ele>
        <time>2022-11-02T12:47:47Z</time>
      </trkpt>
      <trkpt lat="43.49335" lon="6.41939">
        <ele>214.4</ele>
        <time>2022-11-02T12:47:54Z</time>
      </trkpt>
      <trkpt lat="43.49327" lon="6.41935">
        <ele>213.4</ele>
        <time>2022-11-02T12:48:01Z</time>
      </trkpt>
      <trkpt lat="43.49317" lon="6.41932">
        <ele>212.1</ele>
        <time>2022-11-02T12:48:09Z</time>
      </trkpt>
      <trkpt lat="43.49308" lon="6.4193">
        <ele>211.3</ele>
        <time>2022-11-02T12:48:16Z</time>
      </trkpt>
      <trkpt lat="43.49299" lon="6.41926">
        <ele>210.5</ele>
        <time>2022-11-02T12:48:23Z</time>
      </trkpt>
      <trkpt lat="43.49289" lon="6.41923">
        <ele>209.2</ele>
        <time>2022-11-02T12:48:31Z</time>
      </trkpt>
      <trkpt lat="43.49279" lon="6.4192">
        <ele>208.1</ele>
        <time>2022-11-02T12:48:39Z</time>
      </trkpt>
      <trkpt lat="43.4927" lon="6.41916">
        <ele>206.9</ele>
        <time>2022-11-02T12:48:46Z</time>
      </trkpt>
      <trkpt lat="43.49261" lon="6.4191">
        <ele>205.9</ele>
        <time>2022-11-02T12:48:53Z</time>
      </trkpt>
      <trkpt lat="43.49253" lon="6.41902">
        <ele>204.8</ele>
        <time>2022-11-02T12:49:01Z</time>
      </trkpt>
      <trkpt lat="43.49246" lon="6.41893">
        <ele>204</ele>
        <time>2022-11-02T12:49:08Z</time>
      </trkpt>
      <trkpt lat="43.4924" lon="6.41882">
        <ele>202.6</ele>
        <time>2022-11-02T12:49:16Z</time>
      </trkpt>
      <trkpt lat="43.49236" lon="6.4187">
        <ele>201.5</ele>
        <time>2022-11-02T12:49:25Z</time>
      </trkpt>
      <trkpt lat="43.49233" lon="6.41856">
        <ele>200.2</ele>
        <time>2022-11-02T12:49:34Z</time>
      </trkpt>
      <trkpt lat="43.4923" lon="6.41844">
        <ele>199.2</ele>
        <time>2022-11-02T12:49:41Z</time>
      </trkpt>
      <trkpt lat="43.49228" lon="6.4183">
        <ele>197.9</ele>
        <time>2022-11-02T12:49:49Z</time>
      </trkpt>
      <trkpt lat="43.49224" lon="6.41819">
        <ele>196.5</ele>
        <time>2022-11-02T12:49:57Z</time>
      </trkpt>
      <trkpt lat="43.4922" lon="6.41807">
        <ele>195.2</ele>
        <time>2022-11-02T12:50:05Z</time>
      </trkpt>
      <trkpt lat="43.49217" lon="6.41795">
        <ele>193.9</ele>
        <time>2022-11-02T12:50:13Z</time>
      </trkpt>
      <trkpt lat="43.49217" lon="6.41781">
        <ele>192.7</ele>
        <time>2022-11-02T12:50:21Z</time>
      </trkpt>
      <trkpt lat="43.49217" lon="6.41769">
        <ele>191.4</ele>
        <time>2022-11-02T12:50:28Z</time>
      </trkpt>
      <trkpt lat="43.49216" lon="6.41755">
        <ele>190.1</ele>
        <time>2022-11-02T12:50:35Z</time>
      </trkpt>
      <trkpt lat="43.49217" lon="6.41742">
        <ele>189</ele>
        <time>2022-11-02T12:50:41Z</time>
      </trkpt>
      <trkpt lat="43.49217" lon="6.4173">
        <ele>187.8</ele>
        <time>2022-11-02T12:50:47Z</time>
      </trkpt>
      <trkpt lat="43.49218" lon="6.41716">
        <ele>186.7</ele>
        <time>2022-11-02T12:50:55Z</time>
      </trkpt>
      <trkpt lat="43.4922" lon="6.41703">
        <ele>185.3</ele>
        <time>2022-11-02T12:51:03Z</time>
      </trkpt>
      <trkpt lat="43.49219" lon="6.4169">
        <ele>184.3</ele>
        <time>2022-11-02T12:51:12Z</time>
      </trkpt>
      <trkpt lat="43.49223" lon="6.41678">
        <ele>182.5</ele>
        <time>2022-11-02T12:51:21Z</time>
      </trkpt>
      <trkpt lat="43.49221" lon="6.41666">
        <ele>180.5</ele>
        <time>2022-11-02T12:51:45Z</time>
      </trkpt>
      <trkpt lat="43.49223" lon="6.41653">
        <ele>178.6</ele>
        <time>2022-11-02T12:52:28Z</time>
      </trkpt>
      <trkpt lat="43.49223" lon="6.4164">
        <ele>177.3</ele>
        <time>2022-11-02T12:52:36Z</time>
      </trkpt>
      <trkpt lat="43.49224" lon="6.41627">
        <ele>176.5</ele>
        <time>2022-11-02T12:52:43Z</time>
      </trkpt>
      <trkpt lat="43.49228" lon="6.41615">
        <ele>175.8</ele>
        <time>2022-11-02T12:52:50Z</time>
      </trkpt>
      <trkpt lat="43.49231" lon="6.41603">
        <ele>175.2</ele>
        <time>2022-11-02T12:52:58Z</time>
      </trkpt>
      <trkpt lat="43.49233" lon="6.41589">
        <ele>174.6</ele>
        <time>2022-11-02T12:53:05Z</time>
      </trkpt>
      <trkpt lat="43.49236" lon="6.41577">
        <ele>173.9</ele>
        <time>2022-11-02T12:53:11Z</time>
      </trkpt>
      <trkpt lat="43.49238" lon="6.41565">
        <ele>173.5</ele>
        <time>2022-11-02T12:53:18Z</time>
      </trkpt>
      <trkpt lat="43.49243" lon="6.41553">
        <ele>173.1</ele>
        <time>2022-11-02T12:53:26Z</time>
      </trkpt>
      <trkpt lat="43.49253" lon="6.41555">
        <ele>172.8</ele>
        <time>2022-11-02T12:53:35Z</time>
      </trkpt>
      <trkpt lat="43.49262" lon="6.41559">
        <ele>173.3</ele>
        <time>2022-11-02T12:53:42Z</time>
      </trkpt>
      <trkpt lat="43.49271" lon="6.41563">
        <ele>173.1</ele>
        <time>2022-11-02T12:53:49Z</time>
      </trkpt>
      <trkpt lat="43.49281" lon="6.41567">
        <ele>173</ele>
        <time>2022-11-02T12:53:57Z</time>
      </trkpt>
      <trkpt lat="43.4929" lon="6.41568">
        <ele>173.1</ele>
        <time>2022-11-02T12:54:04Z</time>
      </trkpt>
      <trkpt lat="43.49298" lon="6.4156">
        <ele>172.7</ele>
        <time>2022-11-02T12:54:11Z</time>
      </trkpt>
      <trkpt lat="43.49301" lon="6.41548">
        <ele>172.4</ele>
        <time>2022-11-02T12:54:18Z</time>
      </trkpt>
      <trkpt lat="43.49303" lon="6.41536">
        <ele>172.1</ele>
        <time>2022-11-02T12:54:25Z</time>
      </trkpt>
      <trkpt lat="43.49306" lon="6.41523">
        <ele>171.8</ele>
        <time>2022-11-02T12:54:33Z</time>
      </trkpt>
      <trkpt lat="43.4931" lon="6.41511">
        <ele>171.3</ele>
        <time>2022-11-02T12:54:40Z</time>
      </trkpt>
      <trkpt lat="43.49315" lon="6.415">
        <ele>171.5</ele>
        <time>2022-11-02T12:54:47Z</time>
      </trkpt>
      <trkpt lat="43.4932" lon="6.4149">
        <ele>171.3</ele>
        <time>2022-11-02T12:54:55Z</time>
      </trkpt>
      <trkpt lat="43.49327" lon="6.41479">
        <ele>171.3</ele>
        <time>2022-11-02T12:55:03Z</time>
      </trkpt>
      <trkpt lat="43.49334" lon="6.41469">
        <ele>171.6</ele>
        <time>2022-11-02T12:55:10Z</time>
      </trkpt>
      <trkpt lat="43.49339" lon="6.41459">
        <ele>172.3</ele>
        <time>2022-11-02T12:55:16Z</time>
      </trkpt>
      <trkpt lat="43.49344" lon="6.41447">
        <ele>172.4</ele>
        <time>2022-11-02T12:55:23Z</time>
      </trkpt>
      <trkpt lat="43.4935" lon="6.41436">
        <ele>172.5</ele>
        <time>2022-11-02T12:55:30Z</time>
      </trkpt>
      <trkpt lat="43.49355" lon="6.41426">
        <ele>172.5</ele>
        <time>2022-11-02T12:55:37Z</time>
      </trkpt>
      <trkpt lat="43.49361" lon="6.41416">
        <ele>172.3</ele>
        <time>2022-11-02T12:55:44Z</time>
      </trkpt>
      <trkpt lat="43.49367" lon="6.41406">
        <ele>172.6</ele>
        <time>2022-11-02T12:55:51Z</time>
      </trkpt>
      <trkpt lat="43.49373" lon="6.41397">
        <ele>172.7</ele>
        <time>2022-11-02T12:55:58Z</time>
      </trkpt>
      <trkpt lat="43.49378" lon="6.41386">
        <ele>172.8</ele>
        <time>2022-11-02T12:56:05Z</time>
      </trkpt>
      <trkpt lat="43.49383" lon="6.41373">
        <ele>172.5</ele>
        <time>2022-11-02T12:56:13Z</time>
      </trkpt>
      <trkpt lat="43.49388" lon="6.41362">
        <ele>173.1</ele>
        <time>2022-11-02T12:56:21Z</time>
      </trkpt>
      <trkpt lat="43.49391" lon="6.41349">
        <ele>172.5</ele>
        <time>2022-11-02T12:56:29Z</time>
      </trkpt>
      <trkpt lat="43.49384" lon="6.41338">
        <ele>172.1</ele>
        <time>2022-11-02T12:56:39Z</time>
      </trkpt>
      <trkpt lat="43.49376" lon="6.41332">
        <ele>170.9</ele>
        <time>2022-11-02T12:56:48Z</time>
      </trkpt>
      <trkpt lat="43.4937" lon="6.41321">
        <ele>170.1</ele>
        <time>2022-11-02T12:56:55Z</time>
      </trkpt>
      <trkpt lat="43.49364" lon="6.41309">
        <ele>169.4</ele>
        <time>2022-11-02T12:57:03Z</time>
      </trkpt>
      <trkpt lat="43.4936" lon="6.41297">
        <ele>168.9</ele>
        <time>2022-11-02T12:57:09Z</time>
      </trkpt>
      <trkpt lat="43.49358" lon="6.41284">
        <ele>168.5</ele>
        <time>2022-11-02T12:57:16Z</time>
      </trkpt>
      <trkpt lat="43.49355" lon="6.41271">
        <ele>168.2</ele>
        <time>2022-11-02T12:57:25Z</time>
      </trkpt>
      <trkpt lat="43.49354" lon="6.41257">
        <ele>167.6</ele>
        <time>2022-11-02T12:57:33Z</time>
      </trkpt>
      <trkpt lat="43.49353" lon="6.41243">
        <ele>167.2</ele>
        <time>2022-11-02T12:57:40Z</time>
      </trkpt>
      <trkpt lat="43.49353" lon="6.41229">
        <ele>167</ele>
        <time>2022-11-02T12:57:47Z</time>
      </trkpt>
      <trkpt lat="43.49355" lon="6.41215">
        <ele>166.3</ele>
        <time>2022-11-02T12:57:55Z</time>
      </trkpt>
      <trkpt lat="43.49358" lon="6.41203">
        <ele>166</ele>
        <time>2022-11-02T12:58:02Z</time>
      </trkpt>
      <trkpt lat="43.49359" lon="6.41191">
        <ele>166</ele>
        <time>2022-11-02T12:58:08Z</time>
      </trkpt>
      <trkpt lat="43.49362" lon="6.41177">
        <ele>165.7</ele>
        <time>2022-11-02T12:58:15Z</time>
      </trkpt>
      <trkpt lat="43.49365" lon="6.41164">
        <ele>165.3</ele>
        <time>2022-11-02T12:58:22Z</time>
      </trkpt>
      <trkpt lat="43.49367" lon="6.41152">
        <ele>164.7</ele>
        <time>2022-11-02T12:58:30Z</time>
      </trkpt>
      <trkpt lat="43.49371" lon="6.41139">
        <ele>163.9</ele>
        <time>2022-11-02T12:58:38Z</time>
      </trkpt>
      <trkpt lat="43.49373" lon="6.41127">
        <ele>163.6</ele>
        <time>2022-11-02T12:58:44Z</time>
      </trkpt>
      <trkpt lat="43.49375" lon="6.41115">
        <ele>163.3</ele>
        <time>2022-11-02T12:58:50Z</time>
      </trkpt>
      <trkpt lat="43.49377" lon="6.41102">
        <ele>162.8</ele>
        <time>2022-11-02T12:58:57Z</time>
      </trkpt>
      <trkpt lat="43.49377" lon="6.41088">
        <ele>162.6</ele>
        <time>2022-11-02T12:59:04Z</time>
      </trkpt>
      <trkpt lat="43.49377" lon="6.41076">
        <ele>162.9</ele>
        <time>2022-11-02T12:59:51Z</time>
      </trkpt>
      <trkpt lat="43.49368" lon="6.41072">
        <ele>162.1</ele>
        <time>2022-11-02T13:00:03Z</time>
      </trkpt>
      <trkpt lat="43.4936" lon="6.41066">
        <ele>161.7</ele>
        <time>2022-11-02T13:00:10Z</time>
      </trkpt>
      <trkpt lat="43.49352" lon="6.41059">
        <ele>161.1</ele>
        <time>2022-11-02T13:00:18Z</time>
      </trkpt>
      <trkpt lat="43.49344" lon="6.4105">
        <ele>160.9</ele>
        <time>2022-11-02T13:00:26Z</time>
      </trkpt>
      <trkpt lat="43.49337" lon="6.41042">
        <ele>160.4</ele>
        <time>2022-11-02T13:00:33Z</time>
      </trkpt>
      <trkpt lat="43.49329" lon="6.41035">
        <ele>160</ele>
        <time>2022-11-02T13:00:40Z</time>
      </trkpt>
      <trkpt lat="43.49322" lon="6.41026">
        <ele>159.7</ele>
        <time>2022-11-02T13:00:48Z</time>
      </trkpt>
      <trkpt lat="43.49316" lon="6.41016">
        <ele>159.3</ele>
        <time>2022-11-02T13:00:55Z</time>
      </trkpt>
      <trkpt lat="43.49312" lon="6.41004">
        <ele>159.1</ele>
        <time>2022-11-02T13:01:02Z</time>
      </trkpt>
      <trkpt lat="43.49308" lon="6.40992">
        <ele>158.7</ele>
        <time>2022-11-02T13:01:10Z</time>
      </trkpt>
      <trkpt lat="43.49308" lon="6.4098">
        <ele>158.5</ele>
        <time>2022-11-02T13:01:17Z</time>
      </trkpt>
      <trkpt lat="43.49308" lon="6.40966">
        <ele>158.4</ele>
        <time>2022-11-02T13:01:25Z</time>
      </trkpt>
      <trkpt lat="43.49307" lon="6.40952">
        <ele>158.4</ele>
        <time>2022-11-02T13:01:33Z</time>
      </trkpt>
      <trkpt lat="43.49308" lon="6.40939">
        <ele>158.3</ele>
        <time>2022-11-02T13:01:40Z</time>
      </trkpt>
      <trkpt lat="43.49307" lon="6.40926">
        <ele>158.5</ele>
        <time>2022-11-02T13:01:47Z</time>
      </trkpt>
      <trkpt lat="43.49308" lon="6.40911">
        <ele>158.1</ele>
        <time>2022-11-02T13:01:55Z</time>
      </trkpt>
      <trkpt lat="43.49308" lon="6.40899">
        <ele>157.7</ele>
        <time>2022-11-02T13:02:01Z</time>
      </trkpt>
      <trkpt lat="43.49308" lon="6.40885">
        <ele>157.4</ele>
        <time>2022-11-02T13:02:09Z</time>
      </trkpt>
      <trkpt lat="43.49308" lon="6.40872">
        <ele>156.9</ele>
        <time>2022-11-02T13:02:16Z</time>
      </trkpt>
      <trkpt lat="43.49308" lon="6.40859">
        <ele>156.7</ele>
        <time>2022-11-02T13:02:24Z</time>
      </trkpt>
      <trkpt lat="43.49307" lon="6.40846">
        <ele>156.4</ele>
        <time>2022-11-02T13:02:31Z</time>
      </trkpt>
      <trkpt lat="43.49307" lon="6.40833">
        <ele>156</ele>
        <time>2022-11-02T13:02:38Z</time>
      </trkpt>
      <trkpt lat="43.49307" lon="6.40821">
        <ele>156.2</ele>
        <time>2022-11-02T13:02:45Z</time>
      </trkpt>
      <trkpt lat="43.49306" lon="6.40807">
        <ele>156.1</ele>
        <time>2022-11-02T13:02:52Z</time>
      </trkpt>
      <trkpt lat="43.49305" lon="6.40794">
        <ele>156.2</ele>
        <time>2022-11-02T13:02:59Z</time>
      </trkpt>
      <trkpt lat="43.49306" lon="6.4078">
        <ele>156.1</ele>
        <time>2022-11-02T13:03:07Z</time>
      </trkpt>
      <trkpt lat="43.49306" lon="6.40767">
        <ele>156</ele>
        <time>2022-11-02T13:03:14Z</time>
      </trkpt>
      <trkpt lat="43.49306" lon="6.40754">
        <ele>155.8</ele>
        <time>2022-11-02T13:03:21Z</time>
      </trkpt>
      <trkpt lat="43.49307" lon="6.40742">
        <ele>155.8</ele>
        <time>2022-11-02T13:03:28Z</time>
      </trkpt>
      <trkpt lat="43.49307" lon="6.40728">
        <ele>155.4</ele>
        <time>2022-11-02T13:03:36Z</time>
      </trkpt>
      <trkpt lat="43.49306" lon="6.40715">
        <ele>155.3</ele>
        <time>2022-11-02T13:03:43Z</time>
      </trkpt>
      <trkpt lat="43.49305" lon="6.40702">
        <ele>155</ele>
        <time>2022-11-02T13:03:51Z</time>
      </trkpt>
      <trkpt lat="43.49305" lon="6.40689">
        <ele>155.3</ele>
        <time>2022-11-02T13:03:58Z</time>
      </trkpt>
      <trkpt lat="43.49305" lon="6.40675">
        <ele>154.8</ele>
        <time>2022-11-02T13:04:06Z</time>
      </trkpt>
      <trkpt lat="43.49303" lon="6.40661">
        <ele>154.7</ele>
        <time>2022-11-02T13:04:13Z</time>
      </trkpt>
      <trkpt lat="43.49304" lon="6.40649">
        <ele>154.7</ele>
        <time>2022-11-02T13:04:23Z</time>
      </trkpt>
      <trkpt lat="43.49306" lon="6.40636">
        <ele>154.8</ele>
        <time>2022-11-02T13:04:31Z</time>
      </trkpt>
      <trkpt lat="43.49305" lon="6.40623">
        <ele>154.9</ele>
        <time>2022-11-02T13:04:38Z</time>
      </trkpt>
      <trkpt lat="43.49307" lon="6.40611">
        <ele>154.8</ele>
        <time>2022-11-02T13:04:53Z</time>
      </trkpt>
      <trkpt lat="43.49307" lon="6.40598">
        <ele>155.4</ele>
        <time>2022-11-02T13:05:05Z</time>
      </trkpt>
      <trkpt lat="43.49306" lon="6.40585">
        <ele>155.6</ele>
        <time>2022-11-02T13:05:13Z</time>
      </trkpt>
      <trkpt lat="43.49306" lon="6.40571">
        <ele>155.8</ele>
        <time>2022-11-02T13:05:21Z</time>
      </trkpt>
      <trkpt lat="43.49306" lon="6.40557">
        <ele>156</ele>
        <time>2022-11-02T13:05:29Z</time>
      </trkpt>
      <trkpt lat="43.49306" lon="6.40544">
        <ele>156.4</ele>
        <time>2022-11-02T13:05:37Z</time>
      </trkpt>
      <trkpt lat="43.49307" lon="6.40531">
        <ele>156.6</ele>
        <time>2022-11-02T13:05:44Z</time>
      </trkpt>
      <trkpt lat="43.49306" lon="6.40519">
        <ele>156.7</ele>
        <time>2022-11-02T13:05:51Z</time>
      </trkpt>
      <trkpt lat="43.49306" lon="6.40506">
        <ele>157.5</ele>
        <time>2022-11-02T13:05:58Z</time>
      </trkpt>
      <trkpt lat="43.49306" lon="6.40493">
        <ele>157</ele>
        <time>2022-11-02T13:06:06Z</time>
      </trkpt>
      <trkpt lat="43.49306" lon="6.40479">
        <ele>156.8</ele>
        <time>2022-11-02T13:06:15Z</time>
      </trkpt>
      <trkpt lat="43.49306" lon="6.40467">
        <ele>156.4</ele>
        <time>2022-11-02T13:06:26Z</time>
      </trkpt>
      <trkpt lat="43.49302" lon="6.40455">
        <ele>156.4</ele>
        <time>2022-11-02T13:06:35Z</time>
      </trkpt>
      <trkpt lat="43.49292" lon="6.40455">
        <ele>156.4</ele>
        <time>2022-11-02T13:06:42Z</time>
      </trkpt>
      <trkpt lat="43.49284" lon="6.40461">
        <ele>155.9</ele>
        <time>2022-11-02T13:06:50Z</time>
      </trkpt>
      <trkpt lat="43.49275" lon="6.40467">
        <ele>155.6</ele>
        <time>2022-11-02T13:06:57Z</time>
      </trkpt>
      <trkpt lat="43.49267" lon="6.40472">
        <ele>155.5</ele>
        <time>2022-11-02T13:07:05Z</time>
      </trkpt>
      <trkpt lat="43.49259" lon="6.40481">
        <ele>155.2</ele>
        <time>2022-11-02T13:07:13Z</time>
      </trkpt>
      <trkpt lat="43.49251" lon="6.40489">
        <ele>155.1</ele>
        <time>2022-11-02T13:07:22Z</time>
      </trkpt>
      <trkpt lat="43.49245" lon="6.40499">
        <ele>155.1</ele>
        <time>2022-11-02T13:07:30Z</time>
      </trkpt>
      <trkpt lat="43.49238" lon="6.40508">
        <ele>155.2</ele>
        <time>2022-11-02T13:07:38Z</time>
      </trkpt>
      <trkpt lat="43.4923" lon="6.40516">
        <ele>154.8</ele>
        <time>2022-11-02T13:07:46Z</time>
      </trkpt>
      <trkpt lat="43.49222" lon="6.40522">
        <ele>154.2</ele>
        <time>2022-11-02T13:07:53Z</time>
      </trkpt>
      <trkpt lat="43.49212" lon="6.40525">
        <ele>153.9</ele>
        <time>2022-11-02T13:08:02Z</time>
      </trkpt>
      <trkpt lat="43.49203" lon="6.40521">
        <ele>153.4</ele>
        <time>2022-11-02T13:08:10Z</time>
      </trkpt>
      <trkpt lat="43.49193" lon="6.40518">
        <ele>153</ele>
        <time>2022-11-02T13:08:17Z</time>
      </trkpt>
      <trkpt lat="43.49184" lon="6.40514">
        <ele>152.3</ele>
        <time>2022-11-02T13:08:25Z</time>
      </trkpt>
      <trkpt lat="43.49175" lon="6.40509">
        <ele>152.3</ele>
        <time>2022-11-02T13:08:32Z</time>
      </trkpt>
      <trkpt lat="43.49166" lon="6.40506">
        <ele>152.5</ele>
        <time>2022-11-02T13:08:39Z</time>
      </trkpt>
      <trkpt lat="43.49161" lon="6.40516">
        <ele>152.1</ele>
        <time>2022-11-02T13:08:46Z</time>
      </trkpt>
      <trkpt lat="43.49159" lon="6.40529">
        <ele>151.7</ele>
        <time>2022-11-02T13:08:54Z</time>
      </trkpt>
      <trkpt lat="43.49158" lon="6.40543">
        <ele>151.5</ele>
        <time>2022-11-02T13:09:01Z</time>
      </trkpt>
      <trkpt lat="43.49158" lon="6.40557">
        <ele>150.8</ele>
        <time>2022-11-02T13:09:09Z</time>
      </trkpt>
      <trkpt lat="43.49158" lon="6.40569">
        <ele>150.3</ele>
        <time>2022-11-02T13:09:17Z</time>
      </trkpt>
      <trkpt lat="43.49157" lon="6.40582">
        <ele>150.2</ele>
        <time>2022-11-02T13:09:24Z</time>
      </trkpt>
      <trkpt lat="43.49156" lon="6.40596">
        <ele>150</ele>
        <time>2022-11-02T13:09:32Z</time>
      </trkpt>
      <trkpt lat="43.49154" lon="6.40609">
        <ele>150</ele>
        <time>2022-11-02T13:09:39Z</time>
      </trkpt>
      <trkpt lat="43.49153" lon="6.40622">
        <ele>149.9</ele>
        <time>2022-11-02T13:09:47Z</time>
      </trkpt>
      <trkpt lat="43.49153" lon="6.40635">
        <ele>150.1</ele>
        <time>2022-11-02T13:10:46Z</time>
      </trkpt>
      <trkpt lat="43.49153" lon="6.40647">
        <ele>149.9</ele>
        <time>2022-11-02T13:10:54Z</time>
      </trkpt>
      <trkpt lat="43.49153" lon="6.40661">
        <ele>149.9</ele>
        <time>2022-11-02T13:11:02Z</time>
      </trkpt>
      <trkpt lat="43.49153" lon="6.40675">
        <ele>149.7</ele>
        <time>2022-11-02T13:11:10Z</time>
      </trkpt>
      <trkpt lat="43.49154" lon="6.40689">
        <ele>149.8</ele>
        <time>2022-11-02T13:11:18Z</time>
      </trkpt>
      <trkpt lat="43.49155" lon="6.40701">
        <ele>149.6</ele>
        <time>2022-11-02T13:11:25Z</time>
      </trkpt>
      <trkpt lat="43.49156" lon="6.40715">
        <ele>149.8</ele>
        <time>2022-11-02T13:11:33Z</time>
      </trkpt>
      <trkpt lat="43.49157" lon="6.40728">
        <ele>149.8</ele>
        <time>2022-11-02T13:11:40Z</time>
      </trkpt>
      <trkpt lat="43.49159" lon="6.40741">
        <ele>149.7</ele>
        <time>2022-11-02T13:11:48Z</time>
      </trkpt>
      <trkpt lat="43.4916" lon="6.40753">
        <ele>149.8</ele>
        <time>2022-11-02T13:11:55Z</time>
      </trkpt>
      <trkpt lat="43.49163" lon="6.40766">
        <ele>150.4</ele>
        <time>2022-11-02T13:12:03Z</time>
      </trkpt>
      <trkpt lat="43.49165" lon="6.40778">
        <ele>150.2</ele>
        <time>2022-11-02T13:12:10Z</time>
      </trkpt>
      <trkpt lat="43.49166" lon="6.40791">
        <ele>150.2</ele>
        <time>2022-11-02T13:12:18Z</time>
      </trkpt>
      <trkpt lat="43.49168" lon="6.40805">
        <ele>150.2</ele>
        <time>2022-11-02T13:12:26Z</time>
      </trkpt>
      <trkpt lat="43.49169" lon="6.40819">
        <ele>150.6</ele>
        <time>2022-11-02T13:12:34Z</time>
      </trkpt>
      <trkpt lat="43.4917" lon="6.40832">
        <ele>150.8</ele>
        <time>2022-11-02T13:12:42Z</time>
      </trkpt>
      <trkpt lat="43.4917" lon="6.40846">
        <ele>151.1</ele>
        <time>2022-11-02T13:12:50Z</time>
      </trkpt>
      <trkpt lat="43.4917" lon="6.4086">
        <ele>151.4</ele>
        <time>2022-11-02T13:12:58Z</time>
      </trkpt>
      <trkpt lat="43.49172" lon="6.40872">
        <ele>152</ele>
        <time>2022-11-02T13:13:22Z</time>
      </trkpt>
      <trkpt lat="43.49168" lon="6.40885">
        <ele>151.9</ele>
        <time>2022-11-02T13:13:31Z</time>
      </trkpt>
      <trkpt lat="43.49163" lon="6.40895">
        <ele>152.6</ele>
        <time>2022-11-02T13:13:39Z</time>
      </trkpt>
      <trkpt lat="43.49159" lon="6.40908">
        <ele>152.6</ele>
        <time>2022-11-02T13:13:47Z</time>
      </trkpt>
      <trkpt lat="43.49154" lon="6.40919">
        <ele>152.6</ele>
        <time>2022-11-02T13:13:55Z</time>
      </trkpt>
      <trkpt lat="43.49151" lon="6.40931">
        <ele>153</ele>
        <time>2022-11-02T13:14:03Z</time>
      </trkpt>
      <trkpt lat="43.49146" lon="6.40943">
        <ele>152.7</ele>
        <time>2022-11-02T13:14:12Z</time>
      </trkpt>
      <trkpt lat="43.49143" lon="6.40955">
        <ele>152.4</ele>
        <time>2022-11-02T13:14:20Z</time>
      </trkpt>
      <trkpt lat="43.49139" lon="6.40969">
        <ele>152.4</ele>
        <time>2022-11-02T13:14:28Z</time>
      </trkpt>
      <trkpt lat="43.49135" lon="6.40981">
        <ele>152.4</ele>
        <time>2022-11-02T13:14:36Z</time>
      </trkpt>
      <trkpt lat="43.49132" lon="6.40993">
        <ele>152.4</ele>
        <time>2022-11-02T13:14:43Z</time>
      </trkpt>
      <trkpt lat="43.49129" lon="6.41006">
        <ele>152.6</ele>
        <time>2022-11-02T13:14:51Z</time>
      </trkpt>
      <trkpt lat="43.49126" lon="6.41019">
        <ele>152.8</ele>
        <time>2022-11-02T13:14:59Z</time>
      </trkpt>
      <trkpt lat="43.49123" lon="6.41032">
        <ele>152.6</ele>
        <time>2022-11-02T13:15:07Z</time>
      </trkpt>
      <trkpt lat="43.49121" lon="6.41045">
        <ele>152.7</ele>
        <time>2022-11-02T13:15:15Z</time>
      </trkpt>
      <trkpt lat="43.49118" lon="6.41058">
        <ele>153</ele>
        <time>2022-11-02T13:15:23Z</time>
      </trkpt>
      <trkpt lat="43.49115" lon="6.41072">
        <ele>153.3</ele>
        <time>2022-11-02T13:15:31Z</time>
      </trkpt>
      <trkpt lat="43.49113" lon="6.41084">
        <ele>153.3</ele>
        <time>2022-11-02T13:15:38Z</time>
      </trkpt>
      <trkpt lat="43.4911" lon="6.41096">
        <ele>153.4</ele>
        <time>2022-11-02T13:15:46Z</time>
      </trkpt>
      <trkpt lat="43.49108" lon="6.41109">
        <ele>153.4</ele>
        <time>2022-11-02T13:15:54Z</time>
      </trkpt>
      <trkpt lat="43.49105" lon="6.41122">
        <ele>154.1</ele>
        <time>2022-11-02T13:16:02Z</time>
      </trkpt>
      <trkpt lat="43.49102" lon="6.41135">
        <ele>154.3</ele>
        <time>2022-11-02T13:16:10Z</time>
      </trkpt>
      <trkpt lat="43.491" lon="6.41148">
        <ele>154.4</ele>
        <time>2022-11-02T13:16:18Z</time>
      </trkpt>
      <trkpt lat="43.49097" lon="6.41161">
        <ele>154.9</ele>
        <time>2022-11-02T13:16:26Z</time>
      </trkpt>
      <trkpt lat="43.49094" lon="6.41173">
        <ele>154.9</ele>
        <time>2022-11-02T13:16:34Z</time>
      </trkpt>
      <trkpt lat="43.49089" lon="6.41184">
        <ele>155.2</ele>
        <time>2022-11-02T13:16:42Z</time>
      </trkpt>
      <trkpt lat="43.49084" lon="6.41195">
        <ele>155.5</ele>
        <time>2022-11-02T13:16:50Z</time>
      </trkpt>
      <trkpt lat="43.49079" lon="6.41206">
        <ele>155.7</ele>
        <time>2022-11-02T13:16:58Z</time>
      </trkpt>
      <trkpt lat="43.49073" lon="6.41216">
        <ele>155.7</ele>
        <time>2022-11-02T13:17:05Z</time>
      </trkpt>
      <trkpt lat="43.49067" lon="6.41227">
        <ele>156</ele>
        <time>2022-11-02T13:17:13Z</time>
      </trkpt>
      <trkpt lat="43.49063" lon="6.41239">
        <ele>156</ele>
        <time>2022-11-02T13:17:21Z</time>
      </trkpt>
      <trkpt lat="43.49058" lon="6.41251">
        <ele>156</ele>
        <time>2022-11-02T13:17:29Z</time>
      </trkpt>
      <trkpt lat="43.49053" lon="6.41262">
        <ele>156</ele>
        <time>2022-11-02T13:17:36Z</time>
      </trkpt>
      <trkpt lat="43.4905" lon="6.41273">
        <ele>156.2</ele>
        <time>2022-11-02T13:17:43Z</time>
      </trkpt>
      <trkpt lat="43.49045" lon="6.41285">
        <ele>156.2</ele>
        <time>2022-11-02T13:17:51Z</time>
      </trkpt>
      <trkpt lat="43.49041" lon="6.41298">
        <ele>156.4</ele>
        <time>2022-11-02T13:17:59Z</time>
      </trkpt>
      <trkpt lat="43.49036" lon="6.41309">
        <ele>156.2</ele>
        <time>2022-11-02T13:18:06Z</time>
      </trkpt>
      <trkpt lat="43.49032" lon="6.41321">
        <ele>156.4</ele>
        <time>2022-11-02T13:18:14Z</time>
      </trkpt>
      <trkpt lat="43.49028" lon="6.41333">
        <ele>156.9</ele>
        <time>2022-11-02T13:18:22Z</time>
      </trkpt>
      <trkpt lat="43.49024" lon="6.41345">
        <ele>157</ele>
        <time>2022-11-02T13:18:29Z</time>
      </trkpt>
      <trkpt lat="43.4902" lon="6.41356">
        <ele>157.3</ele>
        <time>2022-11-02T13:18:37Z</time>
      </trkpt>
      <trkpt lat="43.49015" lon="6.41367">
        <ele>157.7</ele>
        <time>2022-11-02T13:18:44Z</time>
      </trkpt>
      <trkpt lat="43.49009" lon="6.41377">
        <ele>158.3</ele>
        <time>2022-11-02T13:18:51Z</time>
      </trkpt>
      <trkpt lat="43.49005" lon="6.41389">
        <ele>159</ele>
        <time>2022-11-02T13:18:59Z</time>
      </trkpt>
      <trkpt lat="43.49" lon="6.41401">
        <ele>159.5</ele>
        <time>2022-11-02T13:19:07Z</time>
      </trkpt>
      <trkpt lat="43.48995" lon="6.41412">
        <ele>160</ele>
        <time>2022-11-02T13:19:15Z</time>
      </trkpt>
      <trkpt lat="43.4899" lon="6.41424">
        <ele>160.5</ele>
        <time>2022-11-02T13:19:23Z</time>
      </trkpt>
      <trkpt lat="43.48985" lon="6.41436">
        <ele>161.9</ele>
        <time>2022-11-02T13:19:32Z</time>
      </trkpt>
      <trkpt lat="43.4898" lon="6.41448">
        <ele>163.2</ele>
        <time>2022-11-02T13:19:41Z</time>
      </trkpt>
      <trkpt lat="43.48979" lon="6.41462">
        <ele>164</ele>
        <time>2022-11-02T13:19:49Z</time>
      </trkpt>
      <trkpt lat="43.4898" lon="6.41474">
        <ele>164.9</ele>
        <time>2022-11-02T13:19:57Z</time>
      </trkpt>
      <trkpt lat="43.4898" lon="6.41487">
        <ele>165.5</ele>
        <time>2022-11-02T13:20:04Z</time>
      </trkpt>
      <trkpt lat="43.48982" lon="6.415">
        <ele>166.3</ele>
        <time>2022-11-02T13:20:13Z</time>
      </trkpt>
      <trkpt lat="43.48983" lon="6.41513">
        <ele>166.9</ele>
        <time>2022-11-02T13:20:20Z</time>
      </trkpt>
      <trkpt lat="43.48985" lon="6.41526">
        <ele>167.9</ele>
        <time>2022-11-02T13:20:27Z</time>
      </trkpt>
      <trkpt lat="43.48987" lon="6.41539">
        <ele>168.8</ele>
        <time>2022-11-02T13:20:35Z</time>
      </trkpt>
      <trkpt lat="43.48991" lon="6.4155">
        <ele>169.6</ele>
        <time>2022-11-02T13:20:43Z</time>
      </trkpt>
      <trkpt lat="43.48995" lon="6.41561">
        <ele>169.3</ele>
        <time>2022-11-02T13:20:57Z</time>
      </trkpt>
      <trkpt lat="43.48997" lon="6.41576">
        <ele>169.7</ele>
        <time>2022-11-02T13:21:05Z</time>
      </trkpt>
      <trkpt lat="43.48997" lon="6.41589">
        <ele>170.3</ele>
        <time>2022-11-02T13:21:13Z</time>
      </trkpt>
      <trkpt lat="43.48998" lon="6.41602">
        <ele>170.7</ele>
        <time>2022-11-02T13:21:21Z</time>
      </trkpt>
      <trkpt lat="43.48999" lon="6.41614">
        <ele>171.2</ele>
        <time>2022-11-02T13:21:29Z</time>
      </trkpt>
      <trkpt lat="43.49" lon="6.41628">
        <ele>171.8</ele>
        <time>2022-11-02T13:21:37Z</time>
      </trkpt>
      <trkpt lat="43.49" lon="6.41642">
        <ele>172.4</ele>
        <time>2022-11-02T13:21:45Z</time>
      </trkpt>
      <trkpt lat="43.49" lon="6.41655">
        <ele>172.5</ele>
        <time>2022-11-02T13:21:53Z</time>
      </trkpt>
      <trkpt lat="43.49" lon="6.41668">
        <ele>173.3</ele>
        <time>2022-11-02T13:22:01Z</time>
      </trkpt>
      <trkpt lat="43.48999" lon="6.41681">
        <ele>173.6</ele>
        <time>2022-11-02T13:22:09Z</time>
      </trkpt>
      <trkpt lat="43.48994" lon="6.41691">
        <ele>174.2</ele>
        <time>2022-11-02T13:22:17Z</time>
      </trkpt>
      <trkpt lat="43.48992" lon="6.41704">
        <ele>174.6</ele>
        <time>2022-11-02T13:22:26Z</time>
      </trkpt>
      <trkpt lat="43.4899" lon="6.41717">
        <ele>175.2</ele>
        <time>2022-11-02T13:22:34Z</time>
      </trkpt>
      <trkpt lat="43.48988" lon="6.4173">
        <ele>176.1</ele>
        <time>2022-11-02T13:22:42Z</time>
      </trkpt>
      <trkpt lat="43.48984" lon="6.41742">
        <ele>176.6</ele>
        <time>2022-11-02T13:22:49Z</time>
      </trkpt>
      <trkpt lat="43.48983" lon="6.41754">
        <ele>177.7</ele>
        <time>2022-11-02T13:22:58Z</time>
      </trkpt>
      <trkpt lat="43.48982" lon="6.41768">
        <ele>179</ele>
        <time>2022-11-02T13:23:08Z</time>
      </trkpt>
      <trkpt lat="43.48981" lon="6.41782">
        <ele>180.2</ele>
        <time>2022-11-02T13:23:18Z</time>
      </trkpt>
      <trkpt lat="43.4898" lon="6.41794">
        <ele>181.1</ele>
        <time>2022-11-02T13:23:26Z</time>
      </trkpt>
      <trkpt lat="43.48978" lon="6.41808">
        <ele>182.4</ele>
        <time>2022-11-02T13:23:35Z</time>
      </trkpt>
      <trkpt lat="43.48976" lon="6.4182">
        <ele>183.3</ele>
        <time>2022-11-02T13:23:45Z</time>
      </trkpt>
      <trkpt lat="43.48975" lon="6.41833">
        <ele>184.1</ele>
        <time>2022-11-02T13:23:53Z</time>
      </trkpt>
      <trkpt lat="43.48971" lon="6.41845">
        <ele>184.6</ele>
        <time>2022-11-02T13:24:01Z</time>
      </trkpt>
      <trkpt lat="43.48968" lon="6.41857">
        <ele>185.6</ele>
        <time>2022-11-02T13:24:11Z</time>
      </trkpt>
      <trkpt lat="43.48965" lon="6.41869">
        <ele>186.6</ele>
        <time>2022-11-02T13:24:20Z</time>
      </trkpt>
      <trkpt lat="43.48963" lon="6.41882">
        <ele>187.6</ele>
        <time>2022-11-02T13:24:29Z</time>
      </trkpt>
      <trkpt lat="43.48968" lon="6.41892">
        <ele>188.1</ele>
        <time>2022-11-02T13:24:38Z</time>
      </trkpt>
      <trkpt lat="43.4897" lon="6.41904">
        <ele>188.6</ele>
        <time>2022-11-02T13:24:46Z</time>
      </trkpt>
      <trkpt lat="43.48971" lon="6.41917">
        <ele>189.1</ele>
        <time>2022-11-02T13:24:56Z</time>
      </trkpt>
      <trkpt lat="43.4897" lon="6.4193">
        <ele>189.5</ele>
        <time>2022-11-02T13:25:04Z</time>
      </trkpt>
      <trkpt lat="43.4897" lon="6.41944">
        <ele>189.8</ele>
        <time>2022-11-02T13:25:13Z</time>
      </trkpt>
      <trkpt lat="43.48972" lon="6.41956">
        <ele>190.4</ele>
        <time>2022-11-02T13:25:21Z</time>
      </trkpt>
      <trkpt lat="43.48975" lon="6.41968">
        <ele>190.9</ele>
        <time>2022-11-02T13:25:27Z</time>
      </trkpt>
      <trkpt lat="43.48974" lon="6.41981">
        <ele>191.2</ele>
        <time>2022-11-02T13:25:33Z</time>
      </trkpt>
      <trkpt lat="43.48972" lon="6.41995">
        <ele>191.7</ele>
        <time>2022-11-02T13:25:41Z</time>
      </trkpt>
      <trkpt lat="43.48972" lon="6.42007">
        <ele>192.1</ele>
        <time>2022-11-02T13:25:50Z</time>
      </trkpt>
      <trkpt lat="43.4897" lon="6.42021">
        <ele>192.1</ele>
        <time>2022-11-02T13:25:59Z</time>
      </trkpt>
      <trkpt lat="43.48969" lon="6.42034">
        <ele>192.7</ele>
        <time>2022-11-02T13:26:07Z</time>
      </trkpt>
      <trkpt lat="43.48966" lon="6.42047">
        <ele>192.6</ele>
        <time>2022-11-02T13:26:17Z</time>
      </trkpt>
      <trkpt lat="43.48964" lon="6.42058">
        <ele>193</ele>
        <time>2022-11-02T13:26:25Z</time>
      </trkpt>
      <trkpt lat="43.48962" lon="6.42072">
        <ele>193.4</ele>
        <time>2022-11-02T13:26:34Z</time>
      </trkpt>
      <trkpt lat="43.48961" lon="6.42085">
        <ele>193.6</ele>
        <time>2022-11-02T13:26:43Z</time>
      </trkpt>
      <trkpt lat="43.48963" lon="6.42098">
        <ele>193.6</ele>
        <time>2022-11-02T13:26:51Z</time>
      </trkpt>
      <trkpt lat="43.48962" lon="6.42111">
        <ele>193.4</ele>
        <time>2022-11-02T13:26:59Z</time>
      </trkpt>
      <trkpt lat="43.48964" lon="6.42123">
        <ele>193</ele>
        <time>2022-11-02T13:27:07Z</time>
      </trkpt>
      <trkpt lat="43.48965" lon="6.42136">
        <ele>192.7</ele>
        <time>2022-11-02T13:27:16Z</time>
      </trkpt>
      <trkpt lat="43.48967" lon="6.42149">
        <ele>192.2</ele>
        <time>2022-11-02T13:27:24Z</time>
      </trkpt>
      <trkpt lat="43.48969" lon="6.42162">
        <ele>191.6</ele>
        <time>2022-11-02T13:27:33Z</time>
      </trkpt>
      <trkpt lat="43.48971" lon="6.42175">
        <ele>191.1</ele>
        <time>2022-11-02T13:27:42Z</time>
      </trkpt>
      <trkpt lat="43.48973" lon="6.42187">
        <ele>190.2</ele>
        <time>2022-11-02T13:27:52Z</time>
      </trkpt>
      <trkpt lat="43.48978" lon="6.42198">
        <ele>189.5</ele>
        <time>2022-11-02T13:28:01Z</time>
      </trkpt>
      <trkpt lat="43.48984" lon="6.42208">
        <ele>188.9</ele>
        <time>2022-11-02T13:28:10Z</time>
      </trkpt>
      <trkpt lat="43.4899" lon="6.42217">
        <ele>188.9</ele>
        <time>2022-11-02T13:28:18Z</time>
      </trkpt>
      <trkpt lat="43.48996" lon="6.42227">
        <ele>189.3</ele>
        <time>2022-11-02T13:28:28Z</time>
      </trkpt>
      <trkpt lat="43.49001" lon="6.42239">
        <ele>189.6</ele>
        <time>2022-11-02T13:28:38Z</time>
      </trkpt>
      <trkpt lat="43.49005" lon="6.42252">
        <ele>189.5</ele>
        <time>2022-11-02T13:28:48Z</time>
      </trkpt>
      <trkpt lat="43.49009" lon="6.42264">
        <ele>188.8</ele>
        <time>2022-11-02T13:28:58Z</time>
      </trkpt>
      <trkpt lat="43.49016" lon="6.42272">
        <ele>189</ele>
        <time>2022-11-02T13:29:13Z</time>
      </trkpt>
      <trkpt lat="43.49022" lon="6.42283">
        <ele>189.4</ele>
        <time>2022-11-02T13:29:21Z</time>
      </trkpt>
      <trkpt lat="43.49029" lon="6.4229">
        <ele>189.7</ele>
        <time>2022-11-02T13:29:29Z</time>
      </trkpt>
      <trkpt lat="43.49037" lon="6.42299">
        <ele>189.8</ele>
        <time>2022-11-02T13:29:37Z</time>
      </trkpt>
      <trkpt lat="43.49046" lon="6.42304">
        <ele>190.3</ele>
        <time>2022-11-02T13:29:44Z</time>
      </trkpt>
      <trkpt lat="43.49054" lon="6.42312">
        <ele>190</ele>
        <time>2022-11-02T13:29:52Z</time>
      </trkpt>
      <trkpt lat="43.49061" lon="6.4232">
        <ele>189.2</ele>
        <time>2022-11-02T13:30:00Z</time>
      </trkpt>
      <trkpt lat="43.49066" lon="6.4233">
        <ele>188.1</ele>
        <time>2022-11-02T13:30:09Z</time>
      </trkpt>
      <trkpt lat="43.49073" lon="6.42339">
        <ele>187.7</ele>
        <time>2022-11-02T13:30:19Z</time>
      </trkpt>
      <trkpt lat="43.49081" lon="6.42345">
        <ele>187.7</ele>
        <time>2022-11-02T13:30:26Z</time>
      </trkpt>
      <trkpt lat="43.49083" lon="6.42357">
        <ele>188.4</ele>
        <time>2022-11-02T13:30:45Z</time>
      </trkpt>
      <trkpt lat="43.49091" lon="6.42364">
        <ele>188.8</ele>
        <time>2022-11-02T13:30:57Z</time>
      </trkpt>
      <trkpt lat="43.49097" lon="6.42375">
        <ele>189.2</ele>
        <time>2022-11-02T13:31:05Z</time>
      </trkpt>
      <trkpt lat="43.49105" lon="6.42383">
        <ele>189.6</ele>
        <time>2022-11-02T13:31:13Z</time>
      </trkpt>
      <trkpt lat="43.49111" lon="6.42392">
        <ele>189.6</ele>
        <time>2022-11-02T13:31:21Z</time>
      </trkpt>
      <trkpt lat="43.49121" lon="6.42394">
        <ele>189.5</ele>
        <time>2022-11-02T13:31:36Z</time>
      </trkpt>
      <trkpt lat="43.49128" lon="6.42402">
        <ele>189.3</ele>
        <time>2022-11-02T13:31:44Z</time>
      </trkpt>
      <trkpt lat="43.49134" lon="6.42411">
        <ele>189</ele>
        <time>2022-11-02T13:31:52Z</time>
      </trkpt>
      <trkpt lat="43.49141" lon="6.42421">
        <ele>188.1</ele>
        <time>2022-11-02T13:32:01Z</time>
      </trkpt>
      <trkpt lat="43.49147" lon="6.4243">
        <ele>187.5</ele>
        <time>2022-11-02T13:32:09Z</time>
      </trkpt>
      <trkpt lat="43.49153" lon="6.42441">
        <ele>187.6</ele>
        <time>2022-11-02T13:32:15Z</time>
      </trkpt>
      <trkpt lat="43.49159" lon="6.42452">
        <ele>188.5</ele>
        <time>2022-11-02T13:32:25Z</time>
      </trkpt>
      <trkpt lat="43.49166" lon="6.42461">
        <ele>189.5</ele>
        <time>2022-11-02T13:32:32Z</time>
      </trkpt>
      <trkpt lat="43.49173" lon="6.4247">
        <ele>190.5</ele>
        <time>2022-11-02T13:32:40Z</time>
      </trkpt>
      <trkpt lat="43.49179" lon="6.4248">
        <ele>191.6</ele>
        <time>2022-11-02T13:32:49Z</time>
      </trkpt>
      <trkpt lat="43.49187" lon="6.42489">
        <ele>191.8</ele>
        <time>2022-11-02T13:32:58Z</time>
      </trkpt>
      <trkpt lat="43.49193" lon="6.42498">
        <ele>192</ele>
        <time>2022-11-02T13:33:06Z</time>
      </trkpt>
      <trkpt lat="43.492" lon="6.42507">
        <ele>192.4</ele>
        <time>2022-11-02T13:33:15Z</time>
      </trkpt>
      <trkpt lat="43.49208" lon="6.42513">
        <ele>192.7</ele>
        <time>2022-11-02T13:33:23Z</time>
      </trkpt>
      <trkpt lat="43.49215" lon="6.4252">
        <ele>192.6</ele>
        <time>2022-11-02T13:33:31Z</time>
      </trkpt>
      <trkpt lat="43.49222" lon="6.42531">
        <ele>192.7</ele>
        <time>2022-11-02T13:33:39Z</time>
      </trkpt>
      <trkpt lat="43.49229" lon="6.42541">
        <ele>193</ele>
        <time>2022-11-02T13:33:47Z</time>
      </trkpt>
      <trkpt lat="43.49237" lon="6.42549">
        <ele>193.7</ele>
        <time>2022-11-02T13:33:56Z</time>
      </trkpt>
      <trkpt lat="43.49245" lon="6.42557">
        <ele>193.8</ele>
        <time>2022-11-02T13:34:04Z</time>
      </trkpt>
      <trkpt lat="43.49252" lon="6.42566">
        <ele>193.4</ele>
        <time>2022-11-02T13:34:12Z</time>
      </trkpt>
      <trkpt lat="43.49258" lon="6.42576">
        <ele>193.2</ele>
        <time>2022-11-02T13:34:19Z</time>
      </trkpt>
      <trkpt lat="43.49267" lon="6.42583">
        <ele>193.2</ele>
        <time>2022-11-02T13:34:28Z</time>
      </trkpt>
      <trkpt lat="43.49274" lon="6.42593">
        <ele>192.7</ele>
        <time>2022-11-02T13:34:36Z</time>
      </trkpt>
      <trkpt lat="43.49282" lon="6.42602">
        <ele>192.2</ele>
        <time>2022-11-02T13:34:44Z</time>
      </trkpt>
      <trkpt lat="43.49289" lon="6.42612">
        <ele>191.7</ele>
        <time>2022-11-02T13:34:52Z</time>
      </trkpt>
      <trkpt lat="43.49295" lon="6.42624">
        <ele>191.8</ele>
        <time>2022-11-02T13:35:01Z</time>
      </trkpt>
      <trkpt lat="43.49302" lon="6.42632">
        <ele>192</ele>
        <time>2022-11-02T13:35:09Z</time>
      </trkpt>
      <trkpt lat="43.49309" lon="6.42641">
        <ele>192.2</ele>
        <time>2022-11-02T13:35:17Z</time>
      </trkpt>
      <trkpt lat="43.49316" lon="6.4265">
        <ele>192.3</ele>
        <time>2022-11-02T13:35:24Z</time>
      </trkpt>
      <trkpt lat="43.49322" lon="6.42661">
        <ele>192.4</ele>
        <time>2022-11-02T13:35:32Z</time>
      </trkpt>
      <trkpt lat="43.4933" lon="6.42667">
        <ele>192.8</ele>
        <time>2022-11-02T13:35:53Z</time>
      </trkpt>
      <trkpt lat="43.49339" lon="6.42674">
        <ele>193</ele>
        <time>2022-11-02T13:36:10Z</time>
      </trkpt>
      <trkpt lat="43.49347" lon="6.4268">
        <ele>193.5</ele>
        <time>2022-11-02T13:36:19Z</time>
      </trkpt>
      <trkpt lat="43.49352" lon="6.4269">
        <ele>193.3</ele>
        <time>2022-11-02T13:36:27Z</time>
      </trkpt>
      <trkpt lat="43.49358" lon="6.42701">
        <ele>193.6</ele>
        <time>2022-11-02T13:36:34Z</time>
      </trkpt>
      <trkpt lat="43.49363" lon="6.42711">
        <ele>193.7</ele>
        <time>2022-11-02T13:36:41Z</time>
      </trkpt>
      <trkpt lat="43.49367" lon="6.42723">
        <ele>194</ele>
        <time>2022-11-02T13:36:48Z</time>
      </trkpt>
      <trkpt lat="43.49373" lon="6.42733">
        <ele>194.3</ele>
        <time>2022-11-02T13:36:56Z</time>
      </trkpt>
      <trkpt lat="43.49378" lon="6.42743">
        <ele>194.3</ele>
        <time>2022-11-02T13:37:03Z</time>
      </trkpt>
      <trkpt lat="43.49387" lon="6.42749">
        <ele>193.8</ele>
        <time>2022-11-02T13:37:11Z</time>
      </trkpt>
      <trkpt lat="43.49393" lon="6.4276">
        <ele>192.9</ele>
        <time>2022-11-02T13:37:18Z</time>
      </trkpt>
      <trkpt lat="43.494" lon="6.42769">
        <ele>192.5</ele>
        <time>2022-11-02T13:37:26Z</time>
      </trkpt>
      <trkpt lat="43.49408" lon="6.42777">
        <ele>192.7</ele>
        <time>2022-11-02T13:37:34Z</time>
      </trkpt>
      <trkpt lat="43.49414" lon="6.42786">
        <ele>193</ele>
        <time>2022-11-02T13:37:47Z</time>
      </trkpt>
      <trkpt lat="43.49422" lon="6.42793">
        <ele>193.1</ele>
        <time>2022-11-02T13:37:55Z</time>
      </trkpt>
      <trkpt lat="43.49428" lon="6.42803">
        <ele>193.1</ele>
        <time>2022-11-02T13:38:03Z</time>
      </trkpt>
      <trkpt lat="43.49435" lon="6.42812">
        <ele>193.2</ele>
        <time>2022-11-02T13:38:12Z</time>
      </trkpt>
      <trkpt lat="43.4944" lon="6.42823">
        <ele>193.6</ele>
        <time>2022-11-02T13:38:21Z</time>
      </trkpt>
      <trkpt lat="43.49446" lon="6.42833">
        <ele>194.1</ele>
        <time>2022-11-02T13:38:28Z</time>
      </trkpt>
      <trkpt lat="43.49453" lon="6.42842">
        <ele>195</ele>
        <time>2022-11-02T13:38:37Z</time>
      </trkpt>
      <trkpt lat="43.49457" lon="6.42853">
        <ele>195.7</ele>
        <time>2022-11-02T13:38:47Z</time>
      </trkpt>
      <trkpt lat="43.49465" lon="6.42845">
        <ele>196.4</ele>
        <time>2022-11-02T13:39:03Z</time>
      </trkpt>
      <trkpt lat="43.4947" lon="6.42835">
        <ele>197.6</ele>
        <time>2022-11-02T13:39:15Z</time>
      </trkpt>
      <trkpt lat="43.49474" lon="6.42823">
        <ele>199.5</ele>
        <time>2022-11-02T13:39:32Z</time>
      </trkpt>
      <trkpt lat="43.49478" lon="6.42811">
        <ele>201.8</ele>
        <time>2022-11-02T13:39:43Z</time>
      </trkpt>
      <trkpt lat="43.49483" lon="6.428">
        <ele>203.9</ele>
        <time>2022-11-02T13:39:56Z</time>
      </trkpt>
      <trkpt lat="43.49488" lon="6.42788">
        <ele>206.3</ele>
        <time>2022-11-02T13:40:09Z</time>
      </trkpt>
      <trkpt lat="43.49492" lon="6.42776">
        <ele>208.5</ele>
        <time>2022-11-02T13:40:20Z</time>
      </trkpt>
      <trkpt lat="43.49494" lon="6.42764">
        <ele>211.4</ele>
        <time>2022-11-02T13:40:34Z</time>
      </trkpt>
      <trkpt lat="43.49498" lon="6.42751">
        <ele>214.2</ele>
        <time>2022-11-02T13:40:45Z</time>
      </trkpt>
      <trkpt lat="43.49501" lon="6.42739">
        <ele>216.3</ele>
        <time>2022-11-02T13:40:55Z</time>
      </trkpt>
      <trkpt lat="43.49503" lon="6.42726">
        <ele>219.8</ele>
        <time>2022-11-02T13:41:10Z</time>
      </trkpt>
      <trkpt lat="43.49508" lon="6.42715">
        <ele>223.2</ele>
        <time>2022-11-02T13:41:27Z</time>
      </trkpt>
      <trkpt lat="43.49513" lon="6.42704">
        <ele>225.8</ele>
        <time>2022-11-02T13:41:38Z</time>
      </trkpt>
      <trkpt lat="43.49517" lon="6.42693">
        <ele>230.3</ele>
        <time>2022-11-02T13:41:55Z</time>
      </trkpt>
      <trkpt lat="43.4952" lon="6.42681">
        <ele>233</ele>
        <time>2022-11-02T13:42:08Z</time>
      </trkpt>
      <trkpt lat="43.49525" lon="6.4267">
        <ele>234.5</ele>
        <time>2022-11-02T13:42:16Z</time>
      </trkpt>
      <trkpt lat="43.4953" lon="6.42658">
        <ele>236.5</ele>
        <time>2022-11-02T13:42:25Z</time>
      </trkpt>
      <trkpt lat="43.49533" lon="6.42647">
        <ele>238.1</ele>
        <time>2022-11-02T13:42:36Z</time>
      </trkpt>
      <trkpt lat="43.49538" lon="6.42635">
        <ele>239.7</ele>
        <time>2022-11-02T13:42:45Z</time>
      </trkpt>
      <trkpt lat="43.49543" lon="6.42624">
        <ele>240.7</ele>
        <time>2022-11-02T13:42:54Z</time>
      </trkpt>
      <trkpt lat="43.49547" lon="6.42611">
        <ele>241.6</ele>
        <time>2022-11-02T13:43:04Z</time>
      </trkpt>
      <trkpt lat="43.49552" lon="6.42599">
        <ele>242.6</ele>
        <time>2022-11-02T13:43:15Z</time>
      </trkpt>
      <trkpt lat="43.49553" lon="6.42587">
        <ele>243.6</ele>
        <time>2022-11-02T13:43:24Z</time>
      </trkpt>
      <trkpt lat="43.49559" lon="6.42575">
        <ele>244</ele>
        <time>2022-11-02T13:43:32Z</time>
      </trkpt>
      <trkpt lat="43.4956" lon="6.42562">
        <ele>244.4</ele>
        <time>2022-11-02T13:43:42Z</time>
      </trkpt>
      <trkpt lat="43.49564" lon="6.42551">
        <ele>244.4</ele>
        <time>2022-11-02T13:43:50Z</time>
      </trkpt>
      <trkpt lat="43.49569" lon="6.42539">
        <ele>244.3</ele>
        <time>2022-11-02T13:43:57Z</time>
      </trkpt>
      <trkpt lat="43.49576" lon="6.4253">
        <ele>244.3</ele>
        <time>2022-11-02T13:44:06Z</time>
      </trkpt>
      <trkpt lat="43.4958" lon="6.42518">
        <ele>244.3</ele>
        <time>2022-11-02T13:44:15Z</time>
      </trkpt>
      <trkpt lat="43.49588" lon="6.42509">
        <ele>244.1</ele>
        <time>2022-11-02T13:44:24Z</time>
      </trkpt>
      <trkpt lat="43.49595" lon="6.42499">
        <ele>244.2</ele>
        <time>2022-11-02T13:44:32Z</time>
      </trkpt>
      <trkpt lat="43.49602" lon="6.4249">
        <ele>244.1</ele>
        <time>2022-11-02T13:44:39Z</time>
      </trkpt>
      <trkpt lat="43.49609" lon="6.42481">
        <ele>244.4</ele>
        <time>2022-11-02T13:44:47Z</time>
      </trkpt>
      <trkpt lat="43.49616" lon="6.42471">
        <ele>244.7</ele>
        <time>2022-11-02T13:44:58Z</time>
      </trkpt>
      <trkpt lat="43.49623" lon="6.4246">
        <ele>245.1</ele>
        <time>2022-11-02T13:45:06Z</time>
      </trkpt>
      <trkpt lat="43.49629" lon="6.4245">
        <ele>245.4</ele>
        <time>2022-11-02T13:45:14Z</time>
      </trkpt>
      <trkpt lat="43.49634" lon="6.42437">
        <ele>246.1</ele>
        <time>2022-11-02T13:45:23Z</time>
      </trkpt>
      <trkpt lat="43.49638" lon="6.42425">
        <ele>246.3</ele>
        <time>2022-11-02T13:45:31Z</time>
      </trkpt>
      <trkpt lat="43.49644" lon="6.42414">
        <ele>246.9</ele>
        <time>2022-11-02T13:45:39Z</time>
      </trkpt>
      <trkpt lat="43.49651" lon="6.42405">
        <ele>246.7</ele>
        <time>2022-11-02T13:46:23Z</time>
      </trkpt>
      <trkpt lat="43.49656" lon="6.42394">
        <ele>246.7</ele>
        <time>2022-11-02T13:46:35Z</time>
      </trkpt>
      <trkpt lat="43.49661" lon="6.42383">
        <ele>246.9</ele>
        <time>2022-11-02T13:46:49Z</time>
      </trkpt>
      <trkpt lat="43.4967" lon="6.42377">
        <ele>247.6</ele>
        <time>2022-11-02T13:47:07Z</time>
      </trkpt>
      <trkpt lat="43.49679" lon="6.42374">
        <ele>248.5</ele>
        <time>2022-11-02T13:47:24Z</time>
      </trkpt>
      <trkpt lat="43.49687" lon="6.42367">
        <ele>248.7</ele>
        <time>2022-11-02T13:47:33Z</time>
      </trkpt>
      <trkpt lat="43.49694" lon="6.4236">
        <ele>249</ele>
        <time>2022-11-02T13:47:41Z</time>
      </trkpt>
      <trkpt lat="43.49703" lon="6.42355">
        <ele>249.1</ele>
        <time>2022-11-02T13:47:54Z</time>
      </trkpt>
      <trkpt lat="43.49711" lon="6.42349">
        <ele>250.2</ele>
        <time>2022-11-02T13:48:06Z</time>
      </trkpt>
      <trkpt lat="43.4972" lon="6.42346">
        <ele>250.5</ele>
        <time>2022-11-02T13:48:15Z</time>
      </trkpt>
      <trkpt lat="43.49728" lon="6.42339">
        <ele>250.2</ele>
        <time>2022-11-02T13:48:25Z</time>
      </trkpt>
      <trkpt lat="43.49736" lon="6.42332">
        <ele>250.4</ele>
        <time>2022-11-02T13:48:34Z</time>
      </trkpt>
      <trkpt lat="43.49744" lon="6.42326">
        <ele>250.3</ele>
        <time>2022-11-02T13:48:42Z</time>
      </trkpt>
      <trkpt lat="43.49753" lon="6.42319">
        <ele>249.7</ele>
        <time>2022-11-02T13:48:51Z</time>
      </trkpt>
      <trkpt lat="43.4976" lon="6.42311">
        <ele>249</ele>
        <time>2022-11-02T13:49:03Z</time>
      </trkpt>
      <trkpt lat="43.49768" lon="6.42302">
        <ele>248.5</ele>
        <time>2022-11-02T13:49:14Z</time>
      </trkpt>
      <trkpt lat="43.49776" lon="6.42295">
        <ele>248.1</ele>
        <time>2022-11-02T13:49:21Z</time>
      </trkpt>
      <trkpt lat="43.49784" lon="6.42288">
        <ele>247.9</ele>
        <time>2022-11-02T13:49:26Z</time>
      </trkpt>
      <trkpt lat="43.49791" lon="6.4228">
        <ele>247.8</ele>
        <time>2022-11-02T13:49:32Z</time>
      </trkpt>
      <trkpt lat="43.49801" lon="6.42275">
        <ele>247.6</ele>
        <time>2022-11-02T13:49:38Z</time>
      </trkpt>
      <trkpt lat="43.49809" lon="6.4227">
        <ele>247.5</ele>
        <time>2022-11-02T13:49:48Z</time>
      </trkpt>
      <trkpt lat="43.49819" lon="6.42263">
        <ele>247.5</ele>
        <time>2022-11-02T13:49:57Z</time>
      </trkpt>
      <trkpt lat="43.49827" lon="6.42258">
        <ele>247.6</ele>
        <time>2022-11-02T13:50:03Z</time>
      </trkpt>
      <trkpt lat="43.49835" lon="6.42251">
        <ele>247.8</ele>
        <time>2022-11-02T13:50:10Z</time>
      </trkpt>
      <trkpt lat="43.49845" lon="6.4225">
        <ele>247.8</ele>
        <time>2022-11-02T13:50:17Z</time>
      </trkpt>
      <trkpt lat="43.49853" lon="6.42257">
        <ele>248.6</ele>
        <time>2022-11-02T13:50:27Z</time>
      </trkpt>
      <trkpt lat="43.49863" lon="6.42252">
        <ele>248.7</ele>
        <time>2022-11-02T13:50:34Z</time>
      </trkpt>
      <trkpt lat="43.49872" lon="6.4225">
        <ele>248.6</ele>
        <time>2022-11-02T13:50:42Z</time>
      </trkpt>
      <trkpt lat="43.49881" lon="6.42248">
        <ele>248.7</ele>
        <time>2022-11-02T13:50:50Z</time>
      </trkpt>
      <trkpt lat="43.4989" lon="6.42248">
        <ele>249</ele>
        <time>2022-11-02T13:50:58Z</time>
      </trkpt>
      <trkpt lat="43.499" lon="6.42249">
        <ele>249.1</ele>
        <time>2022-11-02T13:51:05Z</time>
      </trkpt>
      <trkpt lat="43.49909" lon="6.4225">
        <ele>249</ele>
        <time>2022-11-02T13:51:14Z</time>
      </trkpt>
      <trkpt lat="43.49918" lon="6.42247">
        <ele>248.8</ele>
        <time>2022-11-02T13:51:21Z</time>
      </trkpt>
      <trkpt lat="43.49924" lon="6.42237">
        <ele>248.4</ele>
        <time>2022-11-02T13:51:27Z</time>
      </trkpt>
      <trkpt lat="43.49931" lon="6.42227">
        <ele>248.3</ele>
        <time>2022-11-02T13:51:34Z</time>
      </trkpt>
      <trkpt lat="43.49937" lon="6.42217">
        <ele>248.2</ele>
        <time>2022-11-02T13:51:43Z</time>
      </trkpt>
      <trkpt lat="43.49941" lon="6.42206">
        <ele>248</ele>
        <time>2022-11-02T13:51:52Z</time>
      </trkpt>
      <trkpt lat="43.49948" lon="6.42197">
        <ele>248.1</ele>
        <time>2022-11-02T13:51:59Z</time>
      </trkpt>
      <trkpt lat="43.49954" lon="6.42188">
        <ele>248.1</ele>
        <time>2022-11-02T13:52:06Z</time>
      </trkpt>
      <trkpt lat="43.4996" lon="6.42178">
        <ele>248.1</ele>
        <time>2022-11-02T13:52:13Z</time>
      </trkpt>
      <trkpt lat="43.49963" lon="6.42166">
        <ele>248</ele>
        <time>2022-11-02T13:52:22Z</time>
      </trkpt>
      <trkpt lat="43.49969" lon="6.42155">
        <ele>248.1</ele>
        <time>2022-11-02T13:52:28Z</time>
      </trkpt>
      <trkpt lat="43.49973" lon="6.42142">
        <ele>248.7</ele>
        <time>2022-11-02T13:52:36Z</time>
      </trkpt>
      <trkpt lat="43.49977" lon="6.42131">
        <ele>249.1</ele>
        <time>2022-11-02T13:52:43Z</time>
      </trkpt>
      <trkpt lat="43.49982" lon="6.42119">
        <ele>249.5</ele>
        <time>2022-11-02T13:52:51Z</time>
      </trkpt>
      <trkpt lat="43.49989" lon="6.42109">
        <ele>250.1</ele>
        <time>2022-11-02T13:52:59Z</time>
      </trkpt>
      <trkpt lat="43.49993" lon="6.42097">
        <ele>250.8</ele>
        <time>2022-11-02T13:53:07Z</time>
      </trkpt>
      <trkpt lat="43.49998" lon="6.42087">
        <ele>250.9</ele>
        <time>2022-11-02T13:53:14Z</time>
      </trkpt>
      <trkpt lat="43.50003" lon="6.42076">
        <ele>251.3</ele>
        <time>2022-11-02T13:53:23Z</time>
      </trkpt>
      <trkpt lat="43.50011" lon="6.42068">
        <ele>251.4</ele>
        <time>2022-11-02T13:53:30Z</time>
      </trkpt>
      <trkpt lat="43.50017" lon="6.42057">
        <ele>251.5</ele>
        <time>2022-11-02T13:53:38Z</time>
      </trkpt>
      <trkpt lat="43.50022" lon="6.42046">
        <ele>251.2</ele>
        <time>2022-11-02T13:53:47Z</time>
      </trkpt>
      <trkpt lat="43.50028" lon="6.42035">
        <ele>251.3</ele>
        <time>2022-11-02T13:53:54Z</time>
      </trkpt>
      <trkpt lat="43.50033" lon="6.42024">
        <ele>251.5</ele>
        <time>2022-11-02T13:54:04Z</time>
      </trkpt>
      <trkpt lat="43.50039" lon="6.42013">
        <ele>251.1</ele>
        <time>2022-11-02T13:54:13Z</time>
      </trkpt>
      <trkpt lat="43.50047" lon="6.42006">
        <ele>251.1</ele>
        <time>2022-11-02T13:54:22Z</time>
      </trkpt>
      <trkpt lat="43.50055" lon="6.41999">
        <ele>250.3</ele>
        <time>2022-11-02T13:54:31Z</time>
      </trkpt>
      <trkpt lat="43.50064" lon="6.41993">
        <ele>249.5</ele>
        <time>2022-11-02T13:54:40Z</time>
      </trkpt>
      <trkpt lat="43.50074" lon="6.41989">
        <ele>248.7</ele>
        <time>2022-11-02T13:54:48Z</time>
      </trkpt>
      <trkpt lat="43.50084" lon="6.41986">
        <ele>248.2</ele>
        <time>2022-11-02T13:54:55Z</time>
      </trkpt>
      <trkpt lat="43.50094" lon="6.41985">
        <ele>247.2</ele>
        <time>2022-11-02T13:55:05Z</time>
      </trkpt>
      <trkpt lat="43.50103" lon="6.41982">
        <ele>246.1</ele>
        <time>2022-11-02T13:55:14Z</time>
      </trkpt>
      <trkpt lat="43.50112" lon="6.41978">
        <ele>245.7</ele>
        <time>2022-11-02T13:55:19Z</time>
      </trkpt>
      <trkpt lat="43.50122" lon="6.41974">
        <ele>244.7</ele>
        <time>2022-11-02T13:55:29Z</time>
      </trkpt>
      <trkpt lat="43.50131" lon="6.41973">
        <ele>244</ele>
        <time>2022-11-02T13:55:38Z</time>
      </trkpt>
      <trkpt lat="43.5014" lon="6.41968">
        <ele>243.4</ele>
        <time>2022-11-02T13:55:48Z</time>
      </trkpt>
      <trkpt lat="43.50149" lon="6.41966">
        <ele>243.1</ele>
        <time>2022-11-02T13:55:54Z</time>
      </trkpt>
      <trkpt lat="43.50153" lon="6.41966">
        <ele>242.9</ele>
        <time>2022-11-02T13:55:58Z</time>
      </trkpt>
    </trkseg>
  </trk>
</gpx>